Terminal Aerodrome Forecast
Issued by NWS

Home | Current Version | Previous Version | Text Only | Print | Product List | Glossary On
Versions: 1 2 3 4 5 6 7 8 9 10 11 12 13 14 15 16 17 18
000
FTUS42 KTAE 161100
TAFVLD
TAF
KVLD 161120Z 1612/1712 01010KT P6SM SKC
     FM161400 05011G18KT P6SM SKC
     FM162200 08009KT P6SM SCT030 SCT250
     FM170800 05009KT P6SM BKN015=

USA.gov is the U.S. government's official web portal to all federal, state and local government web resources and services.